Time;durP1;ratioP1;P1;durP2;ratioP2;P2;SDS_P1;SDS_P2;PMS_P1;PMS_P2;Temp;Humidity;BMP_temperature;BMP_pressure;BME280_temperature;BME280_humidity;BME280_pressure;Samples;Min_cycle;Max_cycle;Signal;HPM_P1;HPM_P2
2022/12/19 00:01:14;;;;;;;26.85;17.70;;;;;;;;;;10119253;28;20049;-69
2022/12/19 00:06:11;;;;;;;32.50;17.48;;;;;;;;;;10125267;28;20139;-69
2022/12/19 00:11:08;;;;;;;26.65;17.25;;;;;;;;;;10125736;28;20043;-70
2022/12/19 00:16:09;;;;;;;27.85;16.88;;;;;;;;;;10109605;28;20058;-69
2022/12/19 00:21:07;;;;;;;28.40;16.37;;;;;;;;;;10129905;28;20611;-69
2022/12/19 00:26:12;;;;;;;28.95;17.25;;;;;;;;;;10108541;28;20042;-68
2022/12/19 00:31:12;;;;;;;27.67;16.35;;;;;;;;;;10118044;28;20650;-69
2022/12/19 00:36:15;;;;;;;32.38;16.40;;;;;;;;;;10114397;28;20077;-70
2022/12/19 00:41:19;;;;;;;32.17;18.10;;;;;;;;;;10130421;28;20069;-69
2022/12/19 00:46:15;;;;;;;26.35;16.00;;;;;;;;;;10120758;28;20047;-68
2022/12/19 00:51:13;;;;;;;30.02;17.45;;;;;;;;;;10129314;28;20042;-67
2022/12/19 00:56:11;;;;;;;30.92;17.42;;;;;;;;;;10116059;28;20523;-71
2022/12/19 01:01:08;;;;;;;27.13;16.52;;;;;;;;;;10116993;28;20050;-71
2022/12/19 01:06:05;;;;;;;29.10;17.73;;;;;;;;;;10118510;28;20046;-66
2022/12/19 01:11:02;;;;;;;29.17;17.13;;;;;;;;;;10125502;28;20050;-69
2022/12/19 01:16:02;;;;;;;29.90;17.17;;;;;;;;;;10127056;28;20046;-69
2022/12/19 01:20:59;;;;;;;27.42;15.40;;;;;;;;;;10119079;28;20062;-69
2022/12/19 01:25:57;;;;;;;26.02;16.42;;;;;;;;;;10115051;28;20046;-69
2022/12/19 01:30:56;;;;;;;28.85;16.73;;;;;;;;;;10111505;28;20051;-69
2022/12/19 01:35:52;;;;;;;25.75;16.00;;;;;;;;;;10117907;28;20134;-68
2022/12/19 01:40:53;;;;;;;24.08;15.15;;;;;;;;;;10132006;28;20046;-68
2022/12/19 01:45:53;;;;;;;27.92;17.35;;;;;;;;;;10118532;28;20053;-68
2022/12/19 01:50:50;;;;;;;29.23;16.08;;;;;;;;;;10131127;28;20042;-68
2022/12/19 01:55:57;;;;;;;25.90;15.70;;;;;;;;;;10111894;28;20529;-68
2022/12/19 02:00:53;;;;;;;30.90;16.33;;;;;;;;;;10120832;28;20127;-68
2022/12/19 02:05:50;;;;;;;29.58;16.67;;;;;;;;;;11191269;23;20033;-72
2022/12/19 02:10:47;;;;;;;27.52;16.50;;;;;;;;;;10137369;28;20049;-71
2022/12/19 02:15:48;;;;;;;25.70;15.55;;;;;;;;;;10143725;28;20411;-71
2022/12/19 02:20:44;;;;;;;25.40;15.73;;;;;;;;;;10149625;28;20046;-71
2022/12/19 02:26:13;;;;;;;25.58;15.88;;;;;;;;;;10166548;28;20059;-71
2022/12/19 02:31:14;;;;;;;26.77;16.00;;;;;;;;;;10093209;28;20048;-72
2022/12/19 02:36:13;;;;;;;26.63;15.43;;;;;;;;;;10144448;28;20464;-72
2022/12/19 02:41:13;;;;;;;25.27;16.15;;;;;;;;;;10159932;28;20050;-72
2022/12/19 02:46:10;;;;;;;25.52;16.55;;;;;;;;;;10158862;28;20045;-73
2022/12/19 02:51:06;;;;;;;24.70;16.17;;;;;;;;;;10138333;28;20043;-71
2022/12/19 02:56:15;;;;;;;28.27;18.05;;;;;;;;;;10149385;28;20046;-71
2022/12/19 03:01:20;;;;;;;29.42;16.33;;;;;;;;;;10162656;28;20046;-72
2022/12/19 03:06:25;;;;;;;24.58;16.00;;;;;;;;;;10164338;28;20038;-73
2022/12/19 03:11:22;;;;;;;25.65;16.38;;;;;;;;;;10148334;28;20976;-73
2022/12/19 03:16:18;;;;;;;26.75;17.00;;;;;;;;;;10163504;28;20054;-73
2022/12/19 03:21:44;;;;;;;25.20;17.05;;;;;;;;;;10179918;28;20130;-73
2022/12/19 03:26:44;;;;;;;28.92;18.33;;;;;;;;;;10144628;28;20043;-72
2022/12/19 03:31:41;;;;;;;28.48;18.65;;;;;;;;;;10160079;28;20534;-73
2022/12/19 03:36:42;;;;;;;28.05;16.88;;;;;;;;;;10153981;28;20050;-71
2022/12/19 03:46:59;;;;;;;30.73;19.80;;;;;;;;;;10164556;28;20055;-72
2022/12/19 03:52:04;;;;;;;26.25;20.10;;;;;;;;;;10161258;28;20082;-72
2022/12/19 03:57:03;;;;;;;27.65;20.15;;;;;;;;;;10146380;28;20050;-73
2022/12/19 04:02:01;;;;;;;28.65;20.10;;;;;;;;;;10160315;28;20092;-72
2022/12/19 04:06:58;;;;;;;24.83;19.67;;;;;;;;;;10164551;28;20072;-72
2022/12/19 04:11:59;;;;;;;29.30;21.92;;;;;;;;;;10153078;28;20518;-72
2022/12/19 04:16:58;;;;;;;26.35;20.02;;;;;;;;;;10154479;28;20477;-72
2022/12/19 04:21:58;;;;;;;28.70;21.30;;;;;;;;;;10150178;28;20065;-75
2022/12/19 04:26:55;;;;;;;32.63;22.23;;;;;;;;;;10149751;28;20806;-74
2022/12/19 04:31:51;;;;;;;27.67;21.05;;;;;;;;;;10123264;28;20046;-68
2022/12/19 04:36:49;;;;;;;25.33;20.60;;;;;;;;;;10140435;28;20575;-69
2022/12/19 04:41:45;;;;;;;28.65;21.20;;;;;;;;;;10148224;28;20422;-69
2022/12/19 04:46:41;;;;;;;26.73;21.55;;;;;;;;;;10141517;28;20519;-70
2022/12/19 04:51:38;;;;;;;26.73;21.48;;;;;;;;;;10143803;28;20638;-69
2022/12/19 04:56:34;;;;;;;31.73;22.65;;;;;;;;;;10159914;28;20046;-71
2022/12/19 05:01:30;;;;;;;29.85;23.55;;;;;;;;;;10153220;28;20046;-71
2022/12/19 05:06:27;;;;;;;25.33;22.35;;;;;;;;;;10152962;28;20397;-69
2022/12/19 05:11:23;;;;;;;27.33;23.48;;;;;;;;;;10136817;28;21224;-70
2022/12/19 05:16:19;;;;;;;28.08;23.52;;;;;;;;;;10141719;28;20034;-70
2022/12/19 05:21:16;;;;;;;26.27;21.38;;;;;;;;;;10151751;28;20048;-72
2022/12/19 05:26:12;;;;;;;29.10;23.13;;;;;;;;;;10149921;28;20493;-72
2022/12/19 05:31:10;;;;;;;25.90;23.13;;;;;;;;;;10134512;28;20054;-72
2022/12/19 05:36:07;;;;;;;29.45;23.55;;;;;;;;;;10147871;28;20066;-72
2022/12/19 05:41:07;;;;;;;25.70;22.77;;;;;;;;;;10155474;28;20104;-72
2022/12/19 05:46:05;;;;;;;28.92;24.95;;;;;;;;;;10149843;28;20140;-72
2022/12/19 05:51:02;;;;;;;28.83;25.45;;;;;;;;;;10138654;28;20660;-72
2022/12/19 05:56:05;;;;;;;29.80;26.60;;;;;;;;;;10147665;28;20042;-72
2022/12/19 06:01:08;;;;;;;30.55;27.42;;;;;;;;;;10155075;28;20130;-72
2022/12/19 06:06:06;;;;;;;32.30;28.85;;;;;;;;;;10158732;28;20169;-72
2022/12/19 06:11:03;;;;;;;33.28;28.75;;;;;;;;;;10132270;28;20073;-71
2022/12/19 06:16:02;;;;;;;30.50;27.10;;;;;;;;;;10143579;28;20121;-72
2022/12/19 06:21:03;;;;;;;31.33;28.08;;;;;;;;;;10143667;28;20072;-72
2022/12/19 06:26:00;;;;;;;32.95;28.17;;;;;;;;;;10145024;28;20057;-72
2022/12/19 06:30:57;;;;;;;33.03;29.73;;;;;;;;;;10141394;28;20038;-72
2022/12/19 06:36:02;;;;;;;30.60;27.45;;;;;;;;;;10135966;28;20077;-72
2022/12/19 06:46:13;;;;;;;33.70;30.33;;;;;;;;;;10164667;28;20050;-72
2022/12/19 06:51:10;;;;;;;32.35;29.17;;;;;;;;;;10153385;28;20137;-72
2022/12/19 06:56:06;;;;;;;33.22;30.02;;;;;;;;;;10154913;28;20053;-72
2022/12/19 07:01:02;;;;;;;33.80;30.25;;;;;;;;;;10161844;28;20121;-72
2022/12/19 07:05:58;;;;;;;35.38;31.73;;;;;;;;;;10172870;28;20486;-72
2022/12/19 07:10:55;;;;;;;34.70;31.35;;;;;;;;;;10152778;28;20536;-72
2022/12/19 07:15:53;;;;;;;34.60;31.10;;;;;;;;;;10150281;28;20054;-72
2022/12/19 07:20:49;;;;;;;35.90;32.28;;;;;;;;;;10157554;28;20504;-72
2022/12/19 07:25:45;;;;;;;36.53;33.05;;;;;;;;;;10162299;28;20034;-69
2022/12/19 07:30:42;;;;;;;36.13;32.83;;;;;;;;;;10150507;28;20065;-70
2022/12/19 07:35:38;;;;;;;37.30;33.90;;;;;;;;;;10155273;28;20112;-69
2022/12/19 07:40:34;;;;;;;36.28;32.92;;;;;;;;;;10161466;28;20057;-69
2022/12/19 07:45:31;;;;;;;37.25;33.40;;;;;;;;;;10162030;28;20053;-70
2022/12/19 07:50:28;;;;;;;37.28;33.75;;;;;;;;;;10163674;28;20053;-68
2022/12/19 07:55:25;;;;;;;38.67;34.97;;;;;;;;;;10151507;28;20514;-69
2022/12/19 08:00:21;;;;;;;39.97;35.83;;;;;;;;;;10156756;28;20042;-70
2022/12/19 08:05:17;;;;;;;41.88;38.17;;;;;;;;;;10157439;28;20070;-70
2022/12/19 08:10:14;;;;;;;45.40;41.25;;;;;;;;;;10145252;28;20570;-70
2022/12/19 08:15:11;;;;;;;46.83;42.40;;;;;;;;;;10152499;28;20070;-70
2022/12/19 08:20:07;;;;;;;47.78;43.70;;;;;;;;;;10164966;28;20475;-69
2022/12/19 08:25:05;;;;;;;53.38;48.42;;;;;;;;;;10161533;28;20046;-70
2022/12/19 08:30:01;;;;;;;54.47;50.08;;;;;;;;;;10147518;28;20475;-70
2022/12/19 08:34:57;;;;;;;57.40;52.50;;;;;;;;;;10159742;28;20046;-70
2022/12/19 08:39:54;;;;;;;62.30;57.40;;;;;;;;;;10156440;28;20063;-70
2022/12/19 08:44:50;;;;;;;63.63;58.58;;;;;;;;;;10154521;28;20053;-69
2022/12/19 08:49:46;;;;;;;66.93;61.75;;;;;;;;;;10154647;28;20061;-70
2022/12/19 08:54:43;;;;;;;68.05;62.92;;;;;;;;;;10157836;28;20096;-70
2022/12/19 08:59:39;;;;;;;79.18;72.60;;;;;;;;;;10158421;28;20054;-69
2022/12/19 09:04:36;;;;;;;72.38;66.95;;;;;;;;;;10164476;28;20057;-70
2022/12/19 09:09:53;;;;;;;76.32;70.53;;;;;;;;;;10154647;28;20103;-70
2022/12/19 09:14:50;;;;;;;79.22;73.47;;;;;;;;;;10153214;28;20054;-70
2022/12/19 09:19:46;;;;;;;76.10;70.30;;;;;;;;;;10156041;28;20096;-70
2022/12/19 09:24:44;;;;;;;80.15;74.22;;;;;;;;;;10163037;28;20133;-70
2022/12/19 09:29:41;;;;;;;85.00;78.60;;;;;;;;;;10155373;28;20675;-69
2022/12/19 09:34:37;;;;;;;82.90;75.88;;;;;;;;;;10153774;28;20134;-70
2022/12/19 09:39:35;;;;;;;85.97;79.38;;;;;;;;;;10162735;28;20072;-70
2022/12/19 09:44:40;;;;;;;91.43;84.05;;;;;;;;;;10157277;28;20069;-70
2022/12/19 09:49:38;;;;;;;84.75;78.07;;;;;;;;;;10150983;28;20073;-70
2022/12/19 09:54:40;;;;;;;89.38;82.40;;;;;;;;;;10142013;28;20423;-70
2022/12/19 09:59:36;;;;;;;88.43;81.60;;;;;;;;;;10158194;28;20066;-70
2022/12/19 10:04:46;;;;;;;90.88;83.45;;;;;;;;;;10164467;28;20053;-70
2022/12/19 10:09:44;;;;;;;93.85;86.45;;;;;;;;;;10150003;28;20041;-70
2022/12/19 10:15:12;;;;;;;91.47;84.10;;;;;;;;;;10151312;28;20152;-70
2022/12/19 10:20:18;;;;;;;92.72;85.70;;;;;;;;;;10160673;28;20502;-70
2022/12/19 10:25:26;;;;;;;92.25;85.35;;;;;;;;;;10154179;28;20058;-70
2022/12/19 10:30:24;;;;;;;93.30;86.45;;;;;;;;;;10143985;28;20089;-70
2022/12/19 10:35:21;;;;;;;96.15;88.60;;;;;;;;;;10144732;28;20606;-70
2022/12/19 10:40:18;;;;;;;94.68;87.57;;;;;;;;;;10159906;28;20046;-69
2022/12/19 10:45:26;;;;;;;97.43;89.72;;;;;;;;;;10163052;28;20038;-70
2022/12/19 10:50:25;;;;;;;101.32;93.13;;;;;;;;;;10150982;28;20508;-68
2022/12/19 10:55:23;;;;;;;97.40;89.88;;;;;;;;;;10145869;28;20058;-68
2022/12/19 11:00:19;;;;;;;97.28;89.57;;;;;;;;;;10154594;28;20038;-70
2022/12/19 11:05:24;;;;;;;96.68;89.00;;;;;;;;;;10164739;28;20047;-70
2022/12/19 11:10:32;;;;;;;99.35;91.95;;;;;;;;;;10146818;28;20089;-70
2022/12/19 11:15:53;;;;;;;97.93;90.22;;;;;;;;;;10136417;28;20636;-70
2022/12/19 11:21:12;;;;;;;98.32;90.10;;;;;;;;;;10154775;28;20034;-70
2022/12/19 11:26:34;;;;;;;104.38;96.15;;;;;;;;;;10165636;28;20046;-69
2022/12/19 11:31:56;;;;;;;98.75;91.05;;;;;;;;;;10152266;28;20494;-69
2022/12/19 11:37:17;;;;;;;104.38;96.32;;;;;;;;;;10159755;28;20247;-69
2022/12/19 11:42:13;;;;;;;102.03;94.10;;;;;;;;;;10162873;28;20547;-68
2022/12/19 11:47:15;;;;;;;98.32;90.70;;;;;;;;;;10162866;28;20038;-69
2022/12/19 11:52:35;;;;;;;103.78;95.82;;;;;;;;;;10161641;28;20042;-69
2022/12/19 11:57:52;;;;;;;98.38;90.82;;;;;;;;;;10155017;28;20463;-69
2022/12/19 12:02:54;;;;;;;98.18;90.47;;;;;;;;;;10163625;28;20046;-69
2022/12/19 12:08:04;;;;;;;102.35;94.57;;;;;;;;;;10156530;28;20049;-69
2022/12/19 12:13:46;;;;;;;98.82;90.90;;;;;;;;;;10151166;28;20054;-69
2022/12/19 12:19:16;;;;;;;99.15;91.15;;;;;;;;;;10148480;28;20050;-69
2022/12/19 12:24:35;;;;;;;101.20;93.10;;;;;;;;;;10162982;28;20496;-69
2022/12/19 12:29:55;;;;;;;101.18;93.05;;;;;;;;;;10148407;28;20046;-69
2022/12/19 12:35:19;;;;;;;99.90;91.95;;;;;;;;;;10143428;28;20057;-69
2022/12/19 12:40:38;;;;;;;99.75;91.55;;;;;;;;;;10150216;28;20054;-69
2022/12/19 12:45:36;;;;;;;97.53;89.15;;;;;;;;;;10161710;28;20522;-69
2022/12/19 12:50:33;;;;;;;95.50;87.90;;;;;;;;;;10149257;28;20058;-69
2022/12/19 12:55:32;;;;;;;97.50;89.72;;;;;;;;;;10151518;28;20524;-69
2022/12/19 13:00:29;;;;;;;98.25;90.32;;;;;;;;;;10154992;28;20046;-69
2022/12/19 13:05:39;;;;;;;98.78;91.05;;;;;;;;;;10156572;28;20133;-69
2022/12/19 13:10:36;;;;;;;96.65;88.82;;;;;;;;;;10156724;28;20471;-69
2022/12/19 13:15:36;;;;;;;93.22;85.32;;;;;;;;;;10152811;28;20141;-69
2022/12/19 13:20:40;;;;;;;93.50;85.60;;;;;;;;;;10164427;28;20136;-69
2022/12/19 13:25:36;;;;;;;90.75;83.25;;;;;;;;;;10157564;28;20443;-69
2022/12/19 13:30:32;;;;;;;93.00;85.50;;;;;;;;;;10155262;28;20058;-69
2022/12/19 13:35:49;;;;;;;95.13;87.45;;;;;;;;;;10156080;28;20065;-69
2022/12/19 13:46:49;;;;;;;94.53;86.63;;;;;;;;;;10135407;28;20463;-70
2022/12/19 13:51:47;;;;;;;89.82;82.38;;;;;;;;;;10163931;28;20049;-69
2022/12/19 13:56:43;;;;;;;96.97;88.50;;;;;;;;;;10149498;28;20074;-69
2022/12/19 14:01:40;;;;;;;95.55;87.25;;;;;;;;;;10158871;28;20049;-69
2022/12/19 14:06:41;;;;;;;88.82;81.43;;;;;;;;;;10150293;28;20042;-69
2022/12/19 14:11:42;;;;;;;95.55;87.13;;;;;;;;;;10162541;28;20157;-68
2022/12/19 14:17:08;;;;;;;92.20;84.18;;;;;;;;;;10158066;28;20057;-69
2022/12/19 14:22:11;;;;;;;92.93;84.80;;;;;;;;;;10164248;28;20496;-69
2022/12/19 14:27:20;;;;;;;94.45;86.07;;;;;;;;;;10151746;28;20664;-69
2022/12/19 14:32:37;;;;;;;95.53;86.50;;;;;;;;;;10144877;28;20393;-69
2022/12/19 14:38:01;;;;;;;91.63;83.70;;;;;;;;;;10151371;28;20050;-69
2022/12/19 14:43:38;;;;;;;92.75;84.35;;;;;;;;;;10152356;28;20073;-69
2022/12/19 14:48:56;;;;;;;94.45;85.40;;;;;;;;;;10151004;28;20038;-69
2022/12/19 14:54:13;;;;;;;85.15;77.35;;;;;;;;;;10149240;28;20515;-69
2022/12/19 14:59:32;;;;;;;89.28;81.15;;;;;;;;;;10156902;28;20520;-69
2022/12/19 15:04:33;;;;;;;87.78;79.28;;;;;;;;;;10158200;28;20205;-69
2022/12/19 15:09:53;;;;;;;85.68;77.72;;;;;;;;;;10147594;28;20052;-69
2022/12/19 15:15:17;;;;;;;86.50;78.07;;;;;;;;;;10149422;28;20054;-69
2022/12/19 15:20:13;;;;;;;87.57;79.30;;;;;;;;;;10152677;28;20042;-69
2022/12/19 15:25:16;;;;;;;87.15;79.07;;;;;;;;;;10154675;28;20050;-69
2022/12/19 15:30:34;;;;;;;90.17;81.33;;;;;;;;;;10153803;28;20062;-70
2022/12/19 15:35:31;;;;;;;92.63;84.13;;;;;;;;;;10155303;28;20138;-69
2022/12/19 15:40:27;;;;;;;95.68;86.63;;;;;;;;;;10156898;28;20137;-69
2022/12/19 15:45:23;;;;;;;92.40;83.45;;;;;;;;;;10154445;28;20129;-69
2022/12/19 15:50:21;;;;;;;86.20;77.95;;;;;;;;;;10149071;28;20070;-69
2022/12/19 15:55:18;;;;;;;86.10;77.90;;;;;;;;;;10166429;28;20047;-69
2022/12/19 16:00:17;;;;;;;85.50;77.45;;;;;;;;;;10160135;28;20051;-69
2022/12/19 16:05:14;;;;;;;85.65;77.68;;;;;;;;;;10174889;28;20050;-69
2022/12/19 16:10:11;;;;;;;86.13;78.00;;;;;;;;;;10159596;28;20038;-69
2022/12/19 16:15:13;;;;;;;85.88;77.75;;;;;;;;;;10164739;28;20529;-69
2022/12/19 16:20:14;;;;;;;84.70;76.55;;;;;;;;;;10162947;28;20492;-69
2022/12/19 16:25:11;;;;;;;89.35;80.25;;;;;;;;;;10158154;28;20055;-69
2022/12/19 16:30:18;;;;;;;87.30;78.18;;;;;;;;;;10157762;28;20042;-69
2022/12/19 16:35:16;;;;;;;93.03;83.93;;;;;;;;;;10150405;28;20137;-71
2022/12/19 16:40:32;;;;;;;92.72;84.43;;;;;;;;;;10156984;28;20046;-70
2022/12/19 16:45:30;;;;;;;90.95;82.13;;;;;;;;;;10154787;28;20046;-70
2022/12/19 16:50:28;;;;;;;92.28;83.03;;;;;;;;;;10147429;28;20046;-67
2022/12/19 16:55:24;;;;;;;87.85;79.60;;;;;;;;;;10158074;28;20066;-69
2022/12/19 17:00:22;;;;;;;94.00;85.10;;;;;;;;;;10159726;28;20149;-69
2022/12/19 17:05:22;;;;;;;89.13;80.65;;;;;;;;;;10169636;28;20045;-69
2022/12/19 17:10:20;;;;;;;87.28;79.13;;;;;;;;;;10156058;28;20049;-69
2022/12/19 17:15:24;;;;;;;86.35;78.03;;;;;;;;;;10155340;28;20070;-69
2022/12/19 17:20:22;;;;;;;84.72;76.82;;;;;;;;;;10169386;28;20097;-70
2022/12/19 17:25:25;;;;;;;87.75;79.53;;;;;;;;;;10167359;28;20050;-70
2022/12/19 17:30:21;;;;;;;87.53;79.30;;;;;;;;;;10157514;28;21155;-69
2022/12/19 17:35:20;;;;;;;86.40;78.50;;;;;;;;;;10148403;28;20469;-70
2022/12/19 17:40:27;;;;;;;84.68;76.82;;;;;;;;;;10164199;28;20560;-70
2022/12/19 17:45:24;;;;;;;83.38;75.38;;;;;;;;;;10166722;28;20128;-69
2022/12/19 17:50:22;;;;;;;85.72;78.20;;;;;;;;;;10161641;28;20514;-69
2022/12/19 17:55:20;;;;;;;88.03;80.13;;;;;;;;;;10160451;28;20468;-69
2022/12/19 18:00:18;;;;;;;82.35;74.72;;;;;;;;;;10156298;28;20408;-69
2022/12/19 18:05:17;;;;;;;86.45;78.35;;;;;;;;;;10157684;28;20121;-70
2022/12/19 18:10:18;;;;;;;81.50;74.35;;;;;;;;;;10153433;28;20042;-69
2022/12/19 18:15:14;;;;;;;84.93;77.43;;;;;;;;;;10148056;28;20046;-69
2022/12/19 18:20:37;;;;;;;83.05;76.10;;;;;;;;;;10159396;28;20042;-70
2022/12/19 18:25:34;;;;;;;86.78;79.30;;;;;;;;;;10147520;28;20058;-70
2022/12/19 18:30:31;;;;;;;90.75;83.30;;;;;;;;;;10155875;28;20515;-69
2022/12/19 18:35:30;;;;;;;90.30;83.18;;;;;;;;;;10159692;28;20550;-70
2022/12/19 18:40:26;;;;;;;90.63;83.28;;;;;;;;;;10159124;28;20045;-69
2022/12/19 18:45:32;;;;;;;93.07;85.53;;;;;;;;;;10152093;28;20069;-70
2022/12/19 18:50:28;;;;;;;94.28;87.15;;;;;;;;;;10153474;28;20074;-70
2022/12/19 18:55:26;;;;;;;97.60;89.57;;;;;;;;;;10157990;28;20137;-70
2022/12/19 19:00:26;;;;;;;101.35;93.85;;;;;;;;;;10168190;28;20133;-70
2022/12/19 19:05:24;;;;;;;98.60;91.15;;;;;;;;;;10171804;28;20069;-70
2022/12/19 19:10:22;;;;;;;105.30;97.60;;;;;;;;;;10182709;28;20411;-70
2022/12/19 19:15:19;;;;;;;102.95;95.55;;;;;;;;;;10156322;28;20112;-70
2022/12/19 19:20:16;;;;;;;104.97;97.18;;;;;;;;;;10135358;28;20796;-70
2022/12/19 19:25:13;;;;;;;101.72;94.13;;;;;;;;;;10144841;28;20046;-70
2022/12/19 19:30:10;;;;;;;96.65;89.43;;;;;;;;;;10159495;28;21533;-70
2022/12/19 19:35:08;;;;;;;100.78;93.78;;;;;;;;;;10165254;28;20495;-70
2022/12/19 19:40:04;;;;;;;100.13;92.97;;;;;;;;;;10161426;28;20050;-70
2022/12/19 19:45:01;;;;;;;102.43;95.63;;;;;;;;;;10172662;28;20138;-70
2022/12/19 19:49:57;;;;;;;96.80;90.18;;;;;;;;;;10154776;28;20054;-70
2022/12/19 19:54:54;;;;;;;98.40;91.90;;;;;;;;;;10158652;28;20042;-70
2022/12/19 19:59:51;;;;;;;97.82;91.38;;;;;;;;;;10156736;28;20149;-70
2022/12/19 20:04:47;;;;;;;100.35;93.57;;;;;;;;;;10163596;28;20077;-70
2022/12/19 20:09:45;;;;;;;99.97;93.47;;;;;;;;;;10160209;28;20474;-70
2022/12/19 20:14:41;;;;;;;96.05;90.00;;;;;;;;;;10156547;28;20093;-70
2022/12/19 20:19:37;;;;;;;86.68;80.88;;;;;;;;;;10157051;28;20073;-70
2022/12/19 20:24:33;;;;;;;80.72;75.80;;;;;;;;;;10128639;28;20054;-70
2022/12/19 20:29:30;;;;;;;75.00;70.45;;;;;;;;;;10143017;28;20428;-68
2022/12/19 20:34:26;;;;;;;63.92;59.90;;;;;;;;;;10162112;28;20066;-71
2022/12/19 20:39:22;;;;;;;62.28;58.50;;;;;;;;;;10165861;28;20069;-71
2022/12/19 20:44:19;;;;;;;53.92;50.42;;;;;;;;;;10144695;28;20061;-71
2022/12/19 20:49:20;;;;;;;48.17;44.88;;;;;;;;;;10152665;28;20066;-72
2022/12/19 20:54:17;;;;;;;44.20;41.08;;;;;;;;;;10151234;28;20046;-72
2022/12/19 20:59:13;;;;;;;40.08;37.35;;;;;;;;;;10159813;28;20041;-72
2022/12/19 21:04:09;;;;;;;38.17;35.35;;;;;;;;;;10141146;28;20046;-72
2022/12/19 21:09:06;;;;;;;36.42;33.53;;;;;;;;;;10151030;28;20050;-72
2022/12/19 21:14:04;;;;;;;36.83;33.95;;;;;;;;;;10160815;28;20046;-72
2022/12/19 21:19:00;;;;;;;34.30;31.70;;;;;;;;;;10157168;28;20046;-72
2022/12/19 21:23:56;;;;;;;31.52;29.25;;;;;;;;;;10152099;28;20050;-73
2022/12/19 21:28:53;;;;;;;33.70;31.30;;;;;;;;;;10145106;28;20081;-69
2022/12/19 21:33:52;;;;;;;29.63;27.40;;;;;;;;;;10158204;28;20241;-71
2022/12/19 21:38:50;;;;;;;32.05;29.33;;;;;;;;;;10164648;28;20125;-72
2022/12/19 21:43:47;;;;;;;30.90;28.42;;;;;;;;;;10155051;28;20530;-69
2022/12/19 21:48:45;;;;;;;31.98;29.73;;;;;;;;;;10157828;28;20046;-73
2022/12/19 21:53:41;;;;;;;32.00;29.80;;;;;;;;;;10155756;28;20415;-72
2022/12/19 21:58:37;;;;;;;34.95;30.48;;;;;;;;;;10146900;28;20678;-72
2022/12/19 22:03:33;;;;;;;31.73;29.42;;;;;;;;;;10161977;28;20048;-73
2022/12/19 22:08:30;;;;;;;33.70;31.27;;;;;;;;;;10159975;28;20085;-72
2022/12/19 22:13:27;;;;;;;34.88;32.30;;;;;;;;;;10147656;28;20058;-73
2022/12/19 22:18:23;;;;;;;35.42;32.75;;;;;;;;;;10160432;28;20137;-73
2022/12/19 22:23:20;;;;;;;35.38;32.97;;;;;;;;;;10154744;28;20057;-72
2022/12/19 22:28:16;;;;;;;37.15;34.55;;;;;;;;;;10151130;28;20480;-72
2022/12/19 22:33:12;;;;;;;35.67;33.00;;;;;;;;;;10155673;28;20038;-71
2022/12/19 22:38:08;;;;;;;34.30;31.77;;;;;;;;;;10145498;28;20052;-72
2022/12/19 22:43:05;;;;;;;36.63;34.13;;;;;;;;;;10155461;28;20137;-72
2022/12/19 22:48:01;;;;;;;33.95;31.10;;;;;;;;;;10150600;28;20045;-69
2022/12/19 22:52:57;;;;;;;32.05;29.52;;;;;;;;;;10152648;28;20046;-71
2022/12/19 22:57:53;;;;;;;32.88;30.27;;;;;;;;;;10161468;28;20046;-71
2022/12/19 23:02:49;;;;;;;30.20;27.60;;;;;;;;;;10158341;28;20046;-69
2022/12/19 23:07:46;;;;;;;29.80;27.52;;;;;;;;;;10164686;28;20053;-70
2022/12/19 23:12:42;;;;;;;31.73;29.42;;;;;;;;;;10160428;28;20523;-71
2022/12/19 23:17:38;;;;;;;33.65;31.35;;;;;;;;;;10157418;28;20081;-72
2022/12/19 23:22:35;;;;;;;38.65;35.92;;;;;;;;;;10160684;28;20125;-71
2022/12/19 23:27:31;;;;;;;33.95;31.25;;;;;;;;;;10167113;28;20138;-71
2022/12/19 23:32:27;;;;;;;31.58;29.48;;;;;;;;;;10164725;28;20054;-70
2022/12/19 23:37:23;;;;;;;32.70;30.58;;;;;;;;;;10168503;28;20397;-70
2022/12/19 23:42:20;;;;;;;29.98;27.88;;;;;;;;;;10163293;28;20457;-71
2022/12/19 23:47:16;;;;;;;30.98;28.70;;;;;;;;;;10161078;28;20065;-72
2022/12/19 23:52:12;;;;;;;31.33;28.90;;;;;;;;;;10165946;28;20043;-71
2022/12/19 23:57:08;;;;;;;35.85;32.80;;;;;;;;;;10163446;28;20046;-71
